createdAt,value
2018-04-25T00:00:47.920Z,85.10
2018-04-25T00:01:47.844Z,85.00
2018-04-25T00:02:47.768Z,84.91
2018-04-25T00:03:47.705Z,85.29
2018-04-25T00:04:47.620Z,85.19
2018-04-25T00:05:47.538Z,85.29
2018-04-25T00:06:47.463Z,84.91
2018-04-25T00:07:47.384Z,85.19
2018-04-25T00:08:47.309Z,85.67
2018-04-25T00:09:47.238Z,85.67
2018-04-25T00:10:47.182Z,85.53
2018-04-25T00:11:47.081Z,86.05
2018-04-25T00:12:47.045Z,85.05
2018-04-25T00:13:46.929Z,85.19
2018-04-25T00:14:46.856Z,85.48
2018-04-25T00:15:46.773Z,85.15
2018-04-25T00:16:46.697Z,85.10
2018-04-25T00:17:46.620Z,84.86
2018-04-25T00:18:46.546Z,85.05
2018-04-25T00:19:46.469Z,85.38
2018-04-25T00:20:46.390Z,85.25
2018-04-25T00:21:46.314Z,85.25
2018-04-25T00:22:46.235Z,85.34
2018-04-25T00:23:46.162Z,85.44
2018-04-25T00:24:46.095Z,85.63
2018-04-25T00:25:46.012Z,85.25
2018-04-25T00:26:45.934Z,85.72
2018-04-25T00:27:45.857Z,86.30
2018-04-25T00:28:45.777Z,86.20
2018-04-25T00:29:45.725Z,86.10
2018-04-25T00:30:45.625Z,86.30
2018-04-25T00:31:45.548Z,86.10
2018-04-25T00:32:45.580Z,86.10
2018-04-25T00:33:45.398Z,86.01
2018-04-25T00:34:45.317Z,86.10
2018-04-25T00:35:45.262Z,85.63
2018-04-25T00:36:45.163Z,85.63
2018-04-25T00:37:45.088Z,85.72
2018-04-25T00:38:45.010Z,85.91
2018-04-25T00:39:44.948Z,85.34
2018-04-25T00:40:44.880Z,85.53
2018-04-25T00:41:44.785Z,85.34
2018-04-25T00:42:44.704Z,85.63
2018-04-25T00:43:44.628Z,85.63
2018-04-25T00:44:44.550Z,86.10
2018-04-25T00:45:44.533Z,85.63
2018-04-25T00:46:44.419Z,85.72
2018-04-25T00:47:44.325Z,85.82
2018-04-25T00:48:44.244Z,85.15
2018-04-25T00:49:44.166Z,85.25
2018-04-25T00:50:44.090Z,85.53
2018-04-25T00:51:44.036Z,85.25
2018-04-25T00:52:43.961Z,85.15
2018-04-25T00:53:43.860Z,84.96
2018-04-25T00:54:43.784Z,84.96
2018-04-25T00:55:43.707Z,84.96
2018-04-25T00:56:43.631Z,85.05
2018-04-25T00:57:43.557Z,85.05
2018-04-25T00:58:43.488Z,84.67
2018-04-25T00:59:43.400Z,84.48
2018-04-25T01:00:43.326Z,84.96
2018-04-25T01:01:43.255Z,84.86
2018-04-25T01:02:43.169Z,84.77
2018-04-25T01:03:43.113Z,84.96
2018-04-25T01:04:43.019Z,84.86
2018-04-25T01:05:42.938Z,84.48
2018-04-25T01:46:01.960Z,84.72
2018-04-25T01:47:01.831Z,85.01
2018-04-25T01:49:05.715Z,85.01
2018-04-25T01:50:05.588Z,85.25
2018-04-25T01:52:09.478Z,85.01
2018-04-25T01:53:09.346Z,85.05
2018-04-25T01:55:13.186Z,85.25
2018-04-25T01:56:13.104Z,84.58
2018-04-25T01:58:16.989Z,85.05
2018-04-25T01:59:16.865Z,85.25
2018-04-25T02:01:20.700Z,85.05
2018-04-25T02:02:20.621Z,85.01
2018-04-25T02:04:24.503Z,85.01
2018-04-25T02:05:24.399Z,85.01
2018-04-25T02:07:28.266Z,85.39
2018-04-25T02:08:28.138Z,85.21
2018-04-25T02:10:20.996Z,85.87
2018-04-25T02:11:20.867Z,85.77
2018-04-25T02:12:20.779Z,85.68
2018-04-25T02:13:20.724Z,85.49
2018-04-25T02:14:20.619Z,85.15
2018-04-25T02:15:20.541Z,85.30
2018-04-25T02:16:20.465Z,85.30
2018-04-25T02:17:20.386Z,85.58
2018-04-25T02:18:20.310Z,85.01
2018-04-25T02:19:20.233Z,85.58
2018-04-25T02:20:20.161Z,85.77
2018-04-25T02:21:20.092Z,85.77
2018-04-25T02:22:20.002Z,86.25
2018-04-25T02:23:19.938Z,85.97
2018-04-25T02:24:19.845Z,85.87
2018-04-25T02:25:19.770Z,85.77
2018-04-25T02:26:19.699Z,85.97
2018-04-25T02:27:19.690Z,86.16
2018-04-25T02:28:19.553Z,86.06
2018-04-25T02:29:19.464Z,86.16
2018-04-25T02:30:19.386Z,86.06
2018-04-25T02:31:19.310Z,86.82
2018-04-25T02:32:19.230Z,85.77
2018-04-25T02:33:19.157Z,86.25
2018-04-25T02:34:19.084Z,86.63
2018-04-25T02:35:19.001Z,86.44
2018-04-25T02:36:18.923Z,86.63
2018-04-25T02:37:18.862Z,86.35
2018-04-25T02:38:18.777Z,86.54
2018-04-25T02:39:18.699Z,86.35
2018-04-25T02:40:18.615Z,86.44
2018-04-25T02:41:18.545Z,86.63
2018-04-25T02:42:18.479Z,86.35
2018-04-25T02:43:18.403Z,87.11
2018-04-25T02:44:18.306Z,87.11
2018-04-25T02:45:18.228Z,86.63
2018-04-25T02:46:18.153Z,87.02
2018-04-25T02:47:18.076Z,86.73
2018-04-25T02:48:17.999Z,86.54
2018-04-25T02:49:17.923Z,86.44
2018-04-25T02:50:17.845Z,86.44
2018-04-25T02:51:17.768Z,87.30
2018-04-25T02:52:17.700Z,86.63
2018-04-25T02:53:17.612Z,87.30
2018-04-25T02:54:17.542Z,86.92
2018-04-25T02:55:17.471Z,87.59
2018-04-25T02:56:17.380Z,87.93
2018-04-25T02:57:17.304Z,87.83
2018-04-25T02:58:17.320Z,87.83
2018-04-25T02:59:17.161Z,88.12
2018-04-25T03:00:17.074Z,87.83
2018-04-25T03:01:16.995Z,88.50
2018-04-25T03:02:16.921Z,88.21
2018-04-25T03:03:16.843Z,88.98
2018-04-25T03:04:16.764Z,88.40
2018-04-25T03:05:16.688Z,88.02
2018-04-25T03:06:16.609Z,88.88
2018-04-25T03:07:16.533Z,88.98
2018-04-25T03:08:16.454Z,88.98
2018-04-25T03:09:16.394Z,88.98
2018-04-25T03:10:16.299Z,88.69
2018-04-25T03:11:16.223Z,89.54
2018-04-25T03:12:16.147Z,89.36
2018-04-25T03:13:16.066Z,89.17
2018-04-25T03:14:15.990Z,89.36
2018-04-25T03:15:15.913Z,89.36
2018-04-25T03:16:15.856Z,89.36
2018-04-25T03:17:15.756Z,89.17
2018-04-25T03:18:15.680Z,89.36
2018-04-25T03:19:15.603Z,89.26
2018-04-25T03:20:15.524Z,89.45
2018-04-25T03:21:15.447Z,89.17
2018-04-25T03:22:15.370Z,89.45
2018-04-25T03:23:15.301Z,89.45
2018-04-25T03:24:15.214Z,89.07
2018-04-25T03:25:15.138Z,89.07
2018-04-25T03:26:15.063Z,89.17
2018-04-25T03:27:14.996Z,88.88
2018-04-25T03:28:14.918Z,88.69
2018-04-25T03:29:14.830Z,88.92
2018-04-25T03:30:14.752Z,88.92
2018-04-25T03:31:14.677Z,87.68
2018-04-25T03:32:14.599Z,88.07
2018-04-25T03:33:14.518Z,88.07
2018-04-25T03:34:14.450Z,88.45
2018-04-25T03:35:14.364Z,88.07
2018-04-25T03:36:14.289Z,88.45
2018-04-25T03:37:14.208Z,88.35
2018-04-25T03:38:14.134Z,88.64
2018-04-25T03:39:14.058Z,88.35
2018-04-25T03:40:13.977Z,88.26
2018-04-25T03:41:13.900Z,88.92
2018-04-25T03:42:13.831Z,88.88
2018-04-25T03:43:13.746Z,88.98
2018-04-25T03:44:13.669Z,89.31
2018-04-25T03:45:13.591Z,89.45
2018-04-25T03:46:13.536Z,89.07
2018-04-25T03:47:13.436Z,89.31
2018-04-25T03:48:13.359Z,88.88
2018-04-25T03:49:13.280Z,88.98
2018-04-25T03:50:13.223Z,88.98
2018-04-25T03:51:13.131Z,89.07
2018-04-25T03:52:13.060Z,88.69
2018-04-25T03:53:12.972Z,89.26
2018-04-25T03:54:12.894Z,89.26
2018-04-25T03:55:12.817Z,88.98
2018-04-25T03:56:12.740Z,89.54
2018-04-25T03:57:12.671Z,89.54
2018-04-25T03:58:12.586Z,89.54
2018-04-25T03:59:12.593Z,89.36
2018-04-25T04:00:12.441Z,89.74
2018-04-25T04:01:12.377Z,90.03
2018-04-25T04:02:12.280Z,89.83
2018-04-25T04:03:12.198Z,90.31
2018-04-25T04:04:12.120Z,90.22
2018-04-25T04:05:12.045Z,90.12
2018-04-25T04:06:11.982Z,90.03
2018-04-25T04:07:11.962Z,90.12
2018-04-25T04:08:11.824Z,90.03
2018-04-25T04:09:11.747Z,90.22
2018-04-25T04:10:11.655Z,90.41
2018-04-25T04:11:11.577Z,90.31
2018-04-25T04:12:11.501Z,90.41
2018-04-25T04:13:11.423Z,90.12
2018-04-25T04:14:11.346Z,90.22
2018-04-25T04:15:11.267Z,90.12
2018-04-25T04:16:11.197Z,90.03
2018-04-25T04:17:11.111Z,90.22
2018-04-25T04:18:11.039Z,89.93
2018-04-25T04:19:10.967Z,89.93
2018-04-25T04:20:10.880Z,90.50
2018-04-25T04:21:10.802Z,89.93
2018-04-25T04:22:10.730Z,90.50
2018-04-25T04:23:10.646Z,90.41
2018-04-25T04:24:10.567Z,90.79
2018-04-25T04:25:10.508Z,90.22
2018-04-25T04:26:10.419Z,90.12
2018-04-25T04:27:10.338Z,90.22
2018-04-25T04:28:10.279Z,89.93
2018-04-25T04:29:10.180Z,90.03
2018-04-25T04:30:10.123Z,89.93
2018-04-25T04:31:10.029Z,89.83
2018-04-25T04:32:09.950Z,89.74
2018-04-25T04:33:09.871Z,89.83
2018-04-25T04:34:09.794Z,89.93
2018-04-25T04:35:09.770Z,89.74
2018-04-25T04:36:09.664Z,89.93
2018-04-25T04:37:09.561Z,89.45
2018-04-25T04:38:09.486Z,89.93
2018-04-25T04:39:09.406Z,89.36
2018-04-25T04:40:09.329Z,89.74
2018-04-25T04:41:09.253Z,89.36
2018-04-25T04:42:09.174Z,89.07
2018-04-25T04:43:09.158Z,89.83
2018-04-25T04:44:09.018Z,89.83
2018-04-25T04:45:08.943Z,89.83
2018-04-25T04:46:08.865Z,89.45
2018-04-25T04:47:08.786Z,89.64
2018-04-25T04:48:08.714Z,89.36
2018-04-25T04:49:08.633Z,89.45
2018-04-25T04:50:08.554Z,89.36
2018-04-25T04:51:08.479Z,89.83
2018-04-25T04:52:08.399Z,90.22
2018-04-25T04:53:08.324Z,89.93
2018-04-25T04:54:08.244Z,90.12
2018-04-25T04:55:08.167Z,90.22
2018-04-25T04:56:08.089Z,90.22
2018-04-25T04:57:08.013Z,90.50
2018-04-25T04:58:07.937Z,90.22
2018-04-25T04:59:07.857Z,90.22
2018-04-25T05:00:07.780Z,89.93
2018-04-25T05:01:07.704Z,90.12
2018-04-25T05:02:07.626Z,89.93
2018-04-25T05:03:07.548Z,89.93
2018-04-25T05:04:07.489Z,89.83
2018-04-25T05:05:07.392Z,89.93
2018-04-25T05:06:07.314Z,90.03
2018-04-25T05:07:07.239Z,90.07
2018-04-25T05:08:07.163Z,89.69
2018-04-25T05:09:07.083Z,89.50
2018-04-25T05:10:07.011Z,89.50
2018-04-25T05:11:06.928Z,89.50
2018-04-25T05:12:06.853Z,89.02
2018-04-25T05:13:06.858Z,89.12
2018-04-25T05:14:06.696Z,89.31
2018-04-25T05:15:06.618Z,89.31
2018-04-25T05:16:06.553Z,89.02
2018-04-25T05:17:06.513Z,89.02
2018-04-25T05:18:06.389Z,89.02
2018-04-25T05:19:06.311Z,88.26
2018-04-25T05:20:06.234Z,88.35
2018-04-25T05:21:06.170Z,88.45
2018-04-25T05:22:06.079Z,87.68
2018-04-25T05:23:06.005Z,87.54
2018-04-25T05:24:05.925Z,87.44
2018-04-25T05:25:05.849Z,87.25
2018-04-25T05:26:05.792Z,87.54
2018-04-25T05:27:05.692Z,87.25
2018-04-25T05:28:05.692Z,87.44
2018-04-25T05:29:05.543Z,86.39
2018-04-25T05:30:05.461Z,86.68
2018-04-25T05:31:05.384Z,86.77
2018-04-25T05:32:05.356Z,86.49
2018-04-25T05:33:05.240Z,86.20
2018-04-25T05:34:05.957Z,86.77
2018-04-25T05:35:05.079Z,86.58
2018-04-25T05:36:05.001Z,86.87
2018-04-25T05:37:04.942Z,86.77
2018-04-25T05:38:04.848Z,86.39
2018-04-25T05:39:04.781Z,86.20
2018-04-25T05:40:04.694Z,86.05
2018-04-25T05:41:04.626Z,86.20
2018-04-25T05:42:04.540Z,86.01
2018-04-25T05:43:04.465Z,85.48
2018-04-25T05:44:04.388Z,85.58
2018-04-25T05:45:04.310Z,85.00
2018-04-25T05:46:04.357Z,84.81
2018-04-25T05:47:04.160Z,85.10
2018-04-25T05:48:04.106Z,84.91
2018-04-25T05:49:04.029Z,84.91
2018-04-25T05:50:03.942Z,85.10
2018-04-25T05:51:03.852Z,84.91
2018-04-25T05:52:03.774Z,85.19
2018-04-25T05:53:03.699Z,85.14
2018-04-25T05:54:03.621Z,85.00
2018-04-25T05:55:03.545Z,84.62
2018-04-25T05:56:03.469Z,84.66
2018-04-25T05:57:03.393Z,84.19
2018-04-25T05:58:03.316Z,83.99
2018-04-25T05:59:03.241Z,83.33
2018-04-25T06:00:03.164Z,83.42
2018-04-25T06:01:03.090Z,83.51
2018-04-25T06:02:03.009Z,83.04
2018-04-25T06:03:02.934Z,83.04
2018-04-25T06:04:02.861Z,82.08
2018-04-25T06:05:02.779Z,82.18
2018-04-25T06:06:02.709Z,82.60
2018-04-25T06:07:02.652Z,82.08
2018-04-25T06:08:02.557Z,81.93
2018-04-25T06:09:02.476Z,82.12
2018-04-25T06:10:02.434Z,82.03
2018-04-25T06:11:02.330Z,81.36
2018-04-25T06:12:02.248Z,81.55
2018-04-25T06:13:02.186Z,81.45
2018-04-25T06:14:02.100Z,81.55
2018-04-25T06:15:02.021Z,81.45
2018-04-25T06:16:01.986Z,81.45
2018-04-25T06:17:01.867Z,80.59
2018-04-25T06:18:01.794Z,80.79
2018-04-25T06:19:01.725Z,81.49
2018-04-25T06:20:01.642Z,80.50
2018-04-25T06:21:01.564Z,80.88
2018-04-25T06:22:01.490Z,80.73
2018-04-25T06:23:01.415Z,80.16
2018-04-25T06:24:01.337Z,80.06
2018-04-25T06:25:01.262Z,80.16
2018-04-25T06:26:01.185Z,79.49
2018-04-25T06:27:01.113Z,79.00
2018-04-25T06:28:01.037Z,78.81
2018-04-25T06:29:00.961Z,79.58
2018-04-25T06:30:00.887Z,79.58
2018-04-25T06:31:00.823Z,79.00
2018-04-25T06:32:00.732Z,78.91
2018-04-25T06:33:00.657Z,78.81
2018-04-25T06:34:00.581Z,79.20
2018-04-25T06:35:00.506Z,79.00
2018-04-25T06:36:00.434Z,78.86
2018-04-25T06:37:00.352Z,78.76
2018-04-25T06:38:00.279Z,79.05
2018-04-25T06:39:00.205Z,78.09
2018-04-25T06:40:00.134Z,77.99
2018-04-25T06:41:00.083Z,78.38
2018-04-25T06:41:59.984Z,78.66
2018-04-25T06:42:59.902Z,77.61
2018-04-25T06:43:59.826Z,77.80
2018-04-25T06:44:59.805Z,78.47
2018-04-25T06:45:59.679Z,77.90
2018-04-25T06:46:59.600Z,77.23
2018-04-25T06:47:59.523Z,77.90
2018-04-25T06:48:59.447Z,77.23
2018-04-25T06:49:59.374Z,76.75
2018-04-25T06:50:59.301Z,77.23
2018-04-25T06:51:59.222Z,77.04
2018-04-25T06:52:59.147Z,76.21
2018-04-25T06:53:59.073Z,75.64
2018-04-25T06:54:58.999Z,75.16
2018-04-25T06:55:58.951Z,74.68
2018-04-25T06:56:58.848Z,74.01
2018-04-25T06:57:58.772Z,73.34
2018-04-25T06:58:58.696Z,73.28
2018-04-25T06:59:58.638Z,73.09
2018-04-25T07:00:58.577Z,72.99
2018-04-25T07:01:58.483Z,73.09
2018-04-25T07:02:58.398Z,73.28
2018-04-25T07:03:58.358Z,72.80
2018-04-25T07:04:58.247Z,72.99
2018-04-25T07:05:58.174Z,72.90
2018-04-25T07:06:58.094Z,72.42
2018-04-25T07:07:58.105Z,71.46
2018-04-25T07:08:57.949Z,71.08
2018-04-25T07:09:57.870Z,71.40
2018-04-25T07:10:57.865Z,71.31
2018-04-25T07:11:57.723Z,71.02
2018-04-25T07:12:57.682Z,70.54
2018-04-25T07:13:57.572Z,69.87
2018-04-25T07:14:57.510Z,69.68
2018-04-25T07:15:57.435Z,69.48
2018-04-25T07:16:57.348Z,69.87
2018-04-25T07:17:57.278Z,70.38
2018-04-25T07:18:57.254Z,70.48
2018-04-25T07:19:57.126Z,70.67
2018-04-25T07:20:57.049Z,70.29
2018-04-25T07:21:56.972Z,70.67
2018-04-25T07:22:56.905Z,69.42
2018-04-25T07:23:56.887Z,68.66
2018-04-25T07:24:56.754Z,68.56
2018-04-25T07:25:56.685Z,68.66
2018-04-25T07:26:56.601Z,69.13
2018-04-25T07:27:56.525Z,68.69
2018-04-25T07:28:56.460Z,68.88
2018-04-25T07:29:56.376Z,68.12
2018-04-25T07:30:56.385Z,68.40
2018-04-25T07:31:56.244Z,67.92
2018-04-25T07:32:56.151Z,67.73
2018-04-25T07:33:56.079Z,68.02
2018-04-25T07:34:56.005Z,68.12
2018-04-25T07:35:55.933Z,67.54
2018-04-25T07:36:55.860Z,67.47
2018-04-25T07:37:55.784Z,67.86
2018-04-25T07:38:55.713Z,66.96
2018-04-25T07:39:55.636Z,67.67
2018-04-25T07:40:55.563Z,66.90
2018-04-25T07:41:55.529Z,66.42
2018-04-25T07:42:55.993Z,65.65
2018-04-25T07:43:55.340Z,66.03
2018-04-25T07:44:55.267Z,65.75
2018-04-25T07:45:55.205Z,64.98
2018-04-25T07:46:55.116Z,64.69
2018-04-25T07:47:55.066Z,65.08
2018-04-25T07:48:54.969Z,65.30
2018-04-25T07:49:54.909Z,64.63
2018-04-25T07:50:54.823Z,65.01
2018-04-25T07:51:54.748Z,65.01
2018-04-25T07:52:54.675Z,64.34
2018-04-25T07:53:54.601Z,63.76
2018-04-25T07:54:54.528Z,64.43
2018-04-25T07:55:54.457Z,65.20
2018-04-25T07:56:54.379Z,64.43
2018-04-25T07:57:54.306Z,64.25
2018-04-25T07:58:54.247Z,62.52
2018-04-25T07:59:54.175Z,62.04
2018-04-25T08:00:54.086Z,63.19
2018-04-25T08:01:54.024Z,63.67
2018-04-25T08:02:53.939Z,63.38
2018-04-25T08:03:53.870Z,63.60
2018-04-25T08:04:53.792Z,63.19
2018-04-25T08:05:53.729Z,63.41
2018-04-25T08:06:54.659Z,63.32
2018-04-25T08:07:53.574Z,63.12
2018-04-25T08:08:53.513Z,63.79
2018-04-25T08:09:53.426Z,64.09
2018-04-25T08:10:53.355Z,63.99
2018-04-25T08:11:53.284Z,63.99
2018-04-25T08:12:53.207Z,62.84
2018-04-25T08:13:53.135Z,62.35
2018-04-25T08:14:53.064Z,62.64
2018-04-25T08:15:52.989Z,62.84
2018-04-25T08:16:52.915Z,63.32
2018-04-25T08:17:52.906Z,63.41
2018-04-25T08:18:52.772Z,63.12
2018-04-25T08:19:52.696Z,62.84
2018-04-25T08:20:52.652Z,62.93
2018-04-25T08:21:52.553Z,63.22
2018-04-25T08:22:52.475Z,63.60
2018-04-25T08:23:52.463Z,63.41
2018-04-25T08:24:52.329Z,63.51
2018-04-25T08:25:52.274Z,62.45
2018-04-25T08:26:52.183Z,62.64
2018-04-25T08:27:52.109Z,62.64
2018-04-25T08:28:52.036Z,63.32
2018-04-25T08:29:51.965Z,63.32
2018-04-25T08:30:51.891Z,63.02
2018-04-25T08:31:51.815Z,63.02
2018-04-25T08:32:51.744Z,62.45
2018-04-25T08:33:51.671Z,61.49
2018-04-25T08:34:51.611Z,62.35
2018-04-25T08:35:51.543Z,62.74
2018-04-25T08:36:51.452Z,62.38
2018-04-25T08:37:51.386Z,62.58
2018-04-25T08:38:51.309Z,62.48
2018-04-25T08:39:51.237Z,61.61
2018-04-25T08:40:51.166Z,61.04
2018-04-25T08:41:51.090Z,61.61
2018-04-25T08:42:51.017Z,61.71
2018-04-25T08:43:50.943Z,62.00
2018-04-25T08:44:50.956Z,62.03
2018-04-25T08:45:50.804Z,60.88
2018-04-25T08:46:50.723Z,60.88
2018-04-25T08:47:50.653Z,61.07
2018-04-25T08:48:50.590Z,60.88
2018-04-25T08:49:50.509Z,60.88
2018-04-25T08:50:50.437Z,60.88
2018-04-25T08:51:50.359Z,60.11
2018-04-25T08:52:50.288Z,60.21
2018-04-25T08:53:50.217Z,59.72
2018-04-25T08:54:50.146Z,59.63
2018-04-25T08:55:50.076Z,59.17
2018-04-25T08:56:50.003Z,59.27
2018-04-25T08:57:49.941Z,58.98
2018-04-25T08:58:49.857Z,58.76
2018-04-25T08:59:49.782Z,58.76
2018-04-25T09:00:49.712Z,58.67
2018-04-25T09:01:49.635Z,58.70
2018-04-25T09:02:49.565Z,58.60
2018-04-25T09:03:49.497Z,58.89
2018-04-25T09:04:49.419Z,58.76
2018-04-25T09:05:49.355Z,59.05
2018-04-25T09:06:49.275Z,59.66
2018-04-25T09:07:49.210Z,59.56
2018-04-25T09:08:49.132Z,60.04
2018-04-25T09:09:49.061Z,59.94
2018-04-25T09:10:48.986Z,59.94
2018-04-25T09:11:48.913Z,60.04
2018-04-25T09:12:48.842Z,58.89
2018-04-25T09:13:48.770Z,58.50
2018-04-25T09:14:48.698Z,58.79
2018-04-25T09:15:48.623Z,58.79
2018-04-25T09:16:48.553Z,58.72
2018-04-25T09:17:48.482Z,58.79
2018-04-25T09:18:48.412Z,58.40
2018-04-25T09:19:48.340Z,59.17
2018-04-25T09:20:48.274Z,59.27
2018-04-25T09:21:48.194Z,59.17
2018-04-25T09:22:48.126Z,58.89
2018-04-25T09:23:48.052Z,58.50
2018-04-25T09:24:47.978Z,57.45
2018-04-25T09:25:47.906Z,58.70
2018-04-25T09:26:47.856Z,58.70
2018-04-25T09:27:47.765Z,58.50
2018-04-25T09:28:47.689Z,58.60
2018-04-25T09:29:47.628Z,58.60
2018-04-25T09:30:47.547Z,58.31
2018-04-25T09:31:47.473Z,57.92
2018-04-25T09:32:47.404Z,57.95
2018-04-25T09:33:47.331Z,57.83
2018-04-25T09:34:47.257Z,56.77
2018-04-25T09:35:47.185Z,56.80
2018-04-25T09:36:47.120Z,57.86
2018-04-25T09:37:47.045Z,57.67
2018-04-25T09:38:46.974Z,56.90
2018-04-25T09:39:46.898Z,56.80
2018-04-25T09:40:46.827Z,57.18
2018-04-25T09:41:46.781Z,56.80
2018-04-25T09:42:46.683Z,57.09
2018-04-25T09:43:46.612Z,56.80
2018-04-25T09:44:46.540Z,57.47
2018-04-25T09:45:46.467Z,57.47
2018-04-25T09:46:46.411Z,57.02
2018-04-25T09:47:46.325Z,56.25
2018-04-25T09:48:46.257Z,56.25
2018-04-25T09:49:46.183Z,56.22
2018-04-25T09:50:46.118Z,56.73
2018-04-25T09:51:46.082Z,57.31
2018-04-25T09:52:45.967Z,57.02
2018-04-25T09:53:45.896Z,56.15
2018-04-25T09:54:45.825Z,55.51
2018-04-25T09:55:45.752Z,54.80
2018-04-25T09:56:45.679Z,54.90
2018-04-25T09:57:45.611Z,54.42
2018-04-25T09:58:45.536Z,54.80
2018-04-25T09:59:45.463Z,55.31
2018-04-25T10:00:45.391Z,54.35
2018-04-25T10:01:45.332Z,54.93
2018-04-25T10:02:45.256Z,54.93
2018-04-25T10:03:45.181Z,54.64
2018-04-25T10:04:45.107Z,54.28
2018-04-25T10:05:45.035Z,53.22
2018-04-25T10:06:45.010Z,53.51
2018-04-25T10:07:44.894Z,53.31
2018-04-25T10:08:44.823Z,53.51
2018-04-25T10:09:44.753Z,53.51
2018-04-25T10:10:44.680Z,53.61
2018-04-25T10:11:44.621Z,53.22
2018-04-25T10:12:44.542Z,53.80
2018-04-25T10:13:44.468Z,53.31
2018-04-25T10:14:44.400Z,53.22
2018-04-25T10:15:44.326Z,53.22
2018-04-25T10:16:44.255Z,53.31
2018-04-25T10:17:44.185Z,53.73
2018-04-25T10:18:44.117Z,53.03
2018-04-25T10:19:44.042Z,52.83
2018-04-25T10:20:43.984Z,53.31
2018-04-25T10:21:43.902Z,53.03
2018-04-25T10:22:43.833Z,54.09
2018-04-25T10:23:43.761Z,54.09
2018-04-25T10:24:43.692Z,53.13
2018-04-25T10:25:43.670Z,53.31
2018-04-25T10:26:43.551Z,53.41
2018-04-25T10:27:43.476Z,53.13
2018-04-25T10:28:43.406Z,53.15
2018-04-25T10:29:43.339Z,52.67
2018-04-25T10:30:43.282Z,52.28
2018-04-25T10:31:43.199Z,52.76
2018-04-25T10:32:43.126Z,51.61
2018-04-25T10:33:43.053Z,51.22
2018-04-25T10:34:42.985Z,52.09
2018-04-25T10:35:42.931Z,52.37
2018-04-25T10:36:42.868Z,52.76
2018-04-25T10:37:42.777Z,53.05
2018-04-25T10:38:42.738Z,52.57
2018-04-25T10:39:42.631Z,52.47
2018-04-25T10:40:42.582Z,51.99
2018-04-25T10:41:42.492Z,51.22
2018-04-25T10:42:42.420Z,50.96
2018-04-25T10:43:42.349Z,51.34
2018-04-25T10:44:42.290Z,51.25
2018-04-25T10:45:42.230Z,51.15
2018-04-25T10:46:42.141Z,50.59
2018-04-25T10:47:42.070Z,49.02
2018-04-25T10:48:42.014Z,49.22
2018-04-25T10:49:41.930Z,49.22
2018-04-25T10:50:41.860Z,48.74
2018-04-25T10:51:41.792Z,48.25
2018-04-25T10:52:41.718Z,46.90
2018-04-25T10:53:41.649Z,47.09
2018-04-25T10:54:41.579Z,47.48
2018-04-25T10:55:41.511Z,47.87
2018-04-25T10:56:41.443Z,47.99
2018-04-25T10:57:41.369Z,47.89
2018-04-25T10:58:41.299Z,47.99
2018-04-25T10:59:41.228Z,47.99
2018-04-25T11:00:41.206Z,47.96
2018-04-25T11:01:41.098Z,47.96
2018-04-25T11:02:41.019Z,48.16
2018-04-25T11:03:40.948Z,47.09
2018-04-25T11:04:40.882Z,47.29
2018-04-25T11:05:40.812Z,47.02
2018-04-25T11:06:40.742Z,46.15
2018-04-25T11:07:40.667Z,45.96
2018-04-25T11:08:40.599Z,46.34
2018-04-25T11:09:40.535Z,45.96
2018-04-25T11:10:40.461Z,44.92
2018-04-25T11:11:40.390Z,44.73
2018-04-25T11:12:40.320Z,44.60
2018-04-25T11:13:40.252Z,44.73
2018-04-25T11:14:40.187Z,44.34
2018-04-25T11:15:40.111Z,44.15
2018-04-25T11:16:40.052Z,44.65
2018-04-25T11:17:39.972Z,44.46
2018-04-25T11:18:39.902Z,44.36
2018-04-25T11:19:39.832Z,44.57
2018-04-25T11:20:39.768Z,43.10
2018-04-25T11:21:39.694Z,44.05
2018-04-25T11:22:39.624Z,44.73
2018-04-25T11:23:39.553Z,44.92
2018-04-25T11:24:39.486Z,45.50
2018-04-25T11:25:39.418Z,45.69
2018-04-25T11:26:39.384Z,45.98
2018-04-25T11:27:39.280Z,46.15
2018-04-25T11:28:39.209Z,46.15
2018-04-25T11:29:39.140Z,45.38
2018-04-25T11:30:39.070Z,45.76
2018-04-25T11:31:39.004Z,46.44
2018-04-25T11:32:38.930Z,46.54
2018-04-25T11:33:38.879Z,46.54
2018-04-25T11:34:38.796Z,46.54
2018-04-25T11:35:38.734Z,46.83
2018-04-25T11:36:38.672Z,46.44
2018-04-25T11:37:38.582Z,46.25
2018-04-25T11:38:38.519Z,45.57
2018-04-25T11:39:38.446Z,45.28
2018-04-25T11:40:38.376Z,45.00
2018-04-25T11:41:38.303Z,45.28
2018-04-25T11:42:38.235Z,45.57
2018-04-25T11:43:38.162Z,45.86
2018-04-25T11:44:38.106Z,46.15
2018-04-25T11:45:38.025Z,46.54
2018-04-25T11:46:37.958Z,47.12
2018-04-25T11:47:37.887Z,46.73
2018-04-25T11:48:37.818Z,47.00
2018-04-25T11:49:37.745Z,47.29
2018-04-25T11:50:37.681Z,47.38
2018-04-25T11:51:37.627Z,47.70
2018-04-25T11:52:37.544Z,47.60
2018-04-25T11:53:37.467Z,47.50
2018-04-25T11:54:37.398Z,48.66
2018-04-25T11:55:37.329Z,48.35
2018-04-25T11:56:37.258Z,48.18
2018-04-25T11:57:37.189Z,48.18
2018-04-25T11:58:37.117Z,47.60
2018-04-25T11:59:37.054Z,47.24
2018-04-25T12:00:36.980Z,47.05
2018-04-25T12:01:36.911Z,46.78
2018-04-25T12:02:36.843Z,46.39
2018-04-25T12:03:36.770Z,46.80
2018-04-25T12:04:36.702Z,46.22
2018-04-25T12:05:36.631Z,45.86
2018-04-25T12:06:36.593Z,44.89
2018-04-25T12:07:36.500Z,45.08
2018-04-25T12:08:36.425Z,44.89
2018-04-25T12:09:36.356Z,44.60
2018-04-25T12:10:36.286Z,42.96
2018-04-25T12:11:36.224Z,42.93
2018-04-25T12:12:36.151Z,43.61
2018-04-25T12:13:36.083Z,43.82
2018-04-25T12:14:36.018Z,44.02
2018-04-25T12:15:35.947Z,44.89
2018-04-25T12:16:35.888Z,44.89
2018-04-25T12:17:35.812Z,43.92
2018-04-25T12:18:35.819Z,44.40
2018-04-25T12:19:35.673Z,44.72
2018-04-25T12:20:35.605Z,44.54
2018-04-25T12:21:35.536Z,44.35
2018-04-25T12:22:35.482Z,42.51
2018-04-25T12:23:35.410Z,42.41
2018-04-25T12:24:35.333Z,42.34
2018-04-25T12:25:35.268Z,41.47
2018-04-25T12:26:35.204Z,42.32
2018-04-25T12:27:35.132Z,41.74
2018-04-25T12:28:35.067Z,41.72
2018-04-25T12:29:35.023Z,42.20
2018-04-25T12:30:34.941Z,41.91
2018-04-25T12:31:34.867Z,41.70
2018-04-25T12:32:34.799Z,42.47
2018-04-25T12:33:34.734Z,42.83
2018-04-25T12:34:34.666Z,43.23
2018-04-25T12:35:34.598Z,43.71
2018-04-25T12:36:34.532Z,43.20
2018-04-25T12:37:34.461Z,41.36
2018-04-25T12:38:34.395Z,41.66
2018-04-25T12:39:34.329Z,41.56
2018-04-25T12:40:34.265Z,41.58
2018-04-25T12:41:34.214Z,41.87
2018-04-25T12:42:34.128Z,41.17
2018-04-25T12:43:34.059Z,41.56
2018-04-25T12:44:33.994Z,40.30
2018-04-25T12:45:33.921Z,39.97
2018-04-25T12:46:33.857Z,36.93
2018-04-25T12:47:33.787Z,35.24
2018-04-25T12:48:33.728Z,34.59
2018-04-25T12:49:33.652Z,31.70
2018-04-25T12:50:33.589Z,30.15
2018-04-25T12:51:33.525Z,29.78
2018-04-25T12:52:34.101Z,29.52
2018-04-25T12:53:33.393Z,27.97
2018-04-25T12:54:33.332Z,27.58
2018-04-25T12:55:33.266Z,27.97
2018-04-25T12:56:33.219Z,28.63
2018-04-25T12:57:33.145Z,29.19
2018-04-25T12:58:33.129Z,28.74
2018-04-25T12:59:33.017Z,27.98
2018-04-25T13:00:32.955Z,28.16
2018-04-25T13:01:32.908Z,29.04
2018-04-25T13:02:32.836Z,29.53
2018-04-25T13:03:32.774Z,30.29
2018-04-25T13:04:32.710Z,29.30
2018-04-25T13:05:32.649Z,29.76
2018-04-25T13:06:32.589Z,30.83
2018-04-25T13:07:32.543Z,30.24
2018-04-25T13:08:32.466Z,31.03
2018-04-25T13:09:32.437Z,30.82
2018-04-25T13:10:32.341Z,31.77
2018-04-25T13:11:32.279Z,32.76
2018-04-25T13:12:32.252Z,31.97
2018-04-25T13:13:32.188Z,31.73
2018-04-25T13:14:32.106Z,30.78
2018-04-25T13:15:32.037Z,29.53
2018-04-25T13:16:31.986Z,30.46
2018-04-25T13:17:31.903Z,31.58
2018-04-25T13:18:31.853Z,32.82
2018-04-25T13:19:32.593Z,33.49
2018-04-25T13:20:31.716Z,33.76
2018-04-25T13:21:31.655Z,34.23
2018-04-25T13:22:31.606Z,35.11
2018-04-25T13:23:31.531Z,35.88
2018-04-25T13:24:31.464Z,35.19
2018-04-25T13:25:31.403Z,34.62
2018-04-25T13:26:31.344Z,34.72
2018-04-25T13:27:31.275Z,34.30
2018-04-25T13:28:31.223Z,31.01
2018-04-25T13:29:31.161Z,31.21
2018-04-25T13:30:31.087Z,30.51
2018-04-25T13:31:31.069Z,29.93
2018-04-25T13:32:30.954Z,31.08
2018-04-25T13:33:30.891Z,31.79
2018-04-25T13:34:30.827Z,30.25
2018-04-25T13:35:30.783Z,29.66
2018-04-25T13:36:30.701Z,29.38
2018-04-25T13:37:30.638Z,30.44
2018-04-25T13:38:30.583Z,29.97
2018-04-25T13:39:30.508Z,30.61